sensor_id;sensor_type;location;lat;lon;timestamp;pressure;altitude;pressure_sealevel;temperature;humidity
59009;BME280;44794;42.652;23.318;2024-02-15T00:02:19;94981.25;;;5.56;65.45
59009;BME280;44794;42.652;23.318;2024-02-15T00:04:45;94989.06;;;5.54;66.01
59009;BME280;44794;42.652;23.318;2024-02-15T00:07:10;94988.06;;;5.40;66.44
59009;BME280;44794;42.652;23.318;2024-02-15T00:09:35;94984.81;;;5.53;66.00
59009;BME280;44794;42.652;23.318;2024-02-15T00:12:01;95001.28;;;5.32;67.03
59009;BME280;44794;42.652;23.318;2024-02-15T00:14:27;94979.41;;;5.41;67.19
59009;BME280;44794;42.652;23.318;2024-02-15T00:16:56;94989.06;;;5.54;66.73
59009;BME280;44794;42.652;23.318;2024-02-15T00:19:21;94992.69;;;5.50;66.08
59009;BME280;44794;42.652;23.318;2024-02-15T00:21:47;94999.16;;;5.59;66.12
59009;BME280;44794;42.652;23.318;2024-02-15T00:24:12;95001.50;;;5.63;65.28
59009;BME280;44794;42.652;23.318;2024-02-15T00:26:39;94992.75;;;5.84;65.47
59009;BME280;44794;42.652;23.318;2024-02-15T00:29:04;95009.06;;;6.01;63.83
59009;BME280;44794;42.652;23.318;2024-02-15T00:31:30;95007.75;;;6.27;62.76
59009;BME280;44794;42.652;23.318;2024-02-15T00:33:55;95015.94;;;5.84;63.27
59009;BME280;44794;42.652;23.318;2024-02-15T00:36:20;95010.09;;;5.45;65.49
59009;BME280;44794;42.652;23.318;2024-02-15T00:38:45;95009.44;;;5.59;65.31
59009;BME280;44794;42.652;23.318;2024-02-15T00:41:11;95011.06;;;5.43;65.40
59009;BME280;44794;42.652;23.318;2024-02-15T00:43:36;95004.44;;;5.56;65.54
59009;BME280;44794;42.652;23.318;2024-02-15T00:46:02;95000.44;;;5.50;65.42
59009;BME280;44794;42.652;23.318;2024-02-15T00:48:27;95003.91;;;5.49;65.37
59009;BME280;44794;42.652;23.318;2024-02-15T00:50:55;95005.41;;;5.53;64.58
59009;BME280;44794;42.652;23.318;2024-02-15T00:53:20;95002.88;;;5.70;64.80
59009;BME280;44794;42.652;23.318;2024-02-15T00:55:46;95011.19;;;5.75;63.90
59009;BME280;44794;42.652;23.318;2024-02-15T00:58:11;95014.28;;;5.65;64.13
59009;BME280;44794;42.652;23.318;2024-02-15T01:00:36;95012.31;;;5.70;64.80
59009;BME280;44794;42.652;23.318;2024-02-15T01:03:03;95014.84;;;5.71;64.28
59009;BME280;44794;42.652;23.318;2024-02-15T01:05:28;95012.75;;;5.79;64.81
59009;BME280;44794;42.652;23.318;2024-02-15T01:07:55;95012.53;;;5.65;64.58
59009;BME280;44794;42.652;23.318;2024-02-15T01:10:20;95006.03;;;5.58;65.78
59009;BME280;44794;42.652;23.318;2024-02-15T01:12:46;95002.88;;;5.70;64.39
59009;BME280;44794;42.652;23.318;2024-02-15T01:15:11;95013.31;;;5.67;63.76
59009;BME280;44794;42.652;23.318;2024-02-15T01:17:36;95013.69;;;5.78;63.88
59009;BME280;44794;42.652;23.318;2024-02-15T01:20:02;95008.66;;;5.40;64.57
59009;BME280;44794;42.652;23.318;2024-02-15T01:22:27;95009.50;;;5.40;64.87
59009;BME280;44794;42.652;23.318;2024-02-15T01:24:52;94998.88;;;5.46;65.14
59009;BME280;44794;42.652;23.318;2024-02-15T01:27:18;94997.38;;;5.42;64.62
59009;BME280;44794;42.652;23.318;2024-02-15T01:29:43;95007.22;;;5.34;65.68
59009;BME280;44794;42.652;23.318;2024-02-15T01:32:08;95000.59;;;5.29;65.17
59009;BME280;44794;42.652;23.318;2024-02-15T01:34:34;94998.34;;;5.05;66.17
59009;BME280;44794;42.652;23.318;2024-02-15T01:36:59;94997.75;;;5.17;66.53
59009;BME280;44794;42.652;23.318;2024-02-15T01:39:24;94997.91;;;5.14;66.04
59009;BME280;44794;42.652;23.318;2024-02-15T01:41:49;95002.78;;;5.19;66.68
59009;BME280;44794;42.652;23.318;2024-02-15T01:44:21;95005.53;;;5.33;66.02
59009;BME280;44794;42.652;23.318;2024-02-15T01:46:46;95010.94;;;5.46;65.11
59009;BME280;44794;42.652;23.318;2024-02-15T01:49:13;95006.22;;;5.37;65.92
59009;BME280;44794;42.652;23.318;2024-02-15T01:51:38;94998.75;;;5.49;65.22
59009;BME280;44794;42.652;23.318;2024-02-15T01:54:06;95000.16;;;5.38;65.71
59009;BME280;44794;42.652;23.318;2024-02-15T01:56:31;95001.88;;;5.20;66.01
59009;BME280;44794;42.652;23.318;2024-02-15T01:58:57;94995.63;;;5.26;66.26
59009;BME280;44794;42.652;23.318;2024-02-15T02:01:22;95004.19;;;5.43;66.18
59009;BME280;44794;42.652;23.318;2024-02-15T02:03:48;94996.84;;;5.18;66.51
59009;BME280;44794;42.652;23.318;2024-02-15T02:06:13;94998.91;;;5.11;67.96
59009;BME280;44794;42.652;23.318;2024-02-15T02:08:39;94992.78;;;5.30;67.55
59009;BME280;44794;42.652;23.318;2024-02-15T02:11:04;95010.97;;;5.27;67.09
59009;BME280;44794;42.652;23.318;2024-02-15T02:13:29;95006.31;;;5.35;66.29
59009;BME280;44794;42.652;23.318;2024-02-15T02:15:55;95011.78;;;5.11;66.14
59009;BME280;44794;42.652;23.318;2024-02-15T02:18:21;95000.78;;;5.08;66.45
59009;BME280;44794;42.652;23.318;2024-02-15T02:20:46;95005.53;;;5.33;65.92
59009;BME280;44794;42.652;23.318;2024-02-15T02:23:15;95015.84;;;5.33;66.34
59009;BME280;44794;42.652;23.318;2024-02-15T02:25:43;95015.66;;;5.19;66.45
59009;BME280;44794;42.652;23.318;2024-02-15T02:28:11;95007.41;;;5.30;66.85
59009;BME280;44794;42.652;23.318;2024-02-15T02:30:36;95015.06;;;5.31;66.00
59009;BME280;44794;42.652;23.318;2024-02-15T02:33:02;95012.75;;;5.09;66.36
59009;BME280;44794;42.652;23.318;2024-02-15T02:35:30;95005.25;;;4.86;67.48
59009;BME280;44794;42.652;23.318;2024-02-15T02:37:58;95008.84;;;5.00;67.74
59009;BME280;44794;42.652;23.318;2024-02-15T02:40:23;95012.38;;;5.16;66.74
59009;BME280;44794;42.652;23.318;2024-02-15T02:45:14;95013.97;;;5.18;66.40
59009;BME280;44794;42.652;23.318;2024-02-15T02:47:39;95021.97;;;5.31;65.93
59009;BME280;44794;42.652;23.318;2024-02-15T02:50:04;95018.88;;;5.41;66.09
59009;BME280;44794;42.652;23.318;2024-02-15T02:52:30;95016.69;;;5.51;65.07
59009;BME280;44794;42.652;23.318;2024-02-15T02:54:55;95016.56;;;5.54;64.98
59009;BME280;44794;42.652;23.318;2024-02-15T02:57:21;95015.97;;;5.30;65.56
59009;BME280;44794;42.652;23.318;2024-02-15T02:59:46;95023.25;;;5.39;65.81
59009;BME280;44794;42.652;23.318;2024-02-15T03:02:12;95019.53;;;5.10;66.25
59009;BME280;44794;42.652;23.318;2024-02-15T03:04:38;95021.50;;;5.05;67.14
59009;BME280;44794;42.652;23.318;2024-02-15T03:07:05;95022.28;;;5.42;65.65
59009;BME280;44794;42.652;23.318;2024-02-15T03:09:30;95018.44;;;5.15;65.47
59009;BME280;44794;42.652;23.318;2024-02-15T03:11:56;95027.53;;;5.04;67.13
59009;BME280;44794;42.652;23.318;2024-02-15T03:14:22;95019.81;;;4.85;67.89
59009;BME280;44794;42.652;23.318;2024-02-15T03:16:47;95029.13;;;5.24;66.77
59009;BME280;44794;42.652;23.318;2024-02-15T03:19:12;95037.91;;;5.20;66.19
59009;BME280;44794;42.652;23.318;2024-02-15T03:21:37;95028.25;;;4.89;67.54
59009;BME280;44794;42.652;23.318;2024-02-15T03:24:03;95030.97;;;4.86;67.90
59009;BME280;44794;42.652;23.318;2024-02-15T03:26:31;95030.53;;;4.95;68.49
59009;BME280;44794;42.652;23.318;2024-02-15T03:29:03;95022.63;;;4.62;68.86
59009;BME280;44794;42.652;23.318;2024-02-15T03:31:29;95036.25;;;4.83;69.12
59009;BME280;44794;42.652;23.318;2024-02-15T03:33:56;95037.91;;;4.84;68.34
59009;BME280;44794;42.652;23.318;2024-02-15T03:36:21;95030.09;;;4.67;69.33
59009;BME280;44794;42.652;23.318;2024-02-15T03:38:48;95030.41;;;4.41;70.05
59009;BME280;44794;42.652;23.318;2024-02-15T03:41:13;95023.56;;;4.60;70.67
59009;BME280;44794;42.652;23.318;2024-02-15T03:43:39;95037.88;;;4.65;69.33
59009;BME280;44794;42.652;23.318;2024-02-15T03:46:04;95025.78;;;4.49;70.13
59009;BME280;44794;42.652;23.318;2024-02-15T03:48:30;95030.53;;;4.58;70.53
59009;BME280;44794;42.652;23.318;2024-02-15T03:50:57;95025.13;;;4.64;70.31
59009;BME280;44794;42.652;23.318;2024-02-15T03:53:23;95034.94;;;4.93;69.42
59009;BME280;44794;42.652;23.318;2024-02-15T03:55:48;95027.75;;;4.81;69.10
59009;BME280;44794;42.652;23.318;2024-02-15T03:58:14;95033.53;;;4.29;70.74
59009;BME280;44794;42.652;23.318;2024-02-15T04:00:40;95025.34;;;4.40;71.83
59009;BME280;44794;42.652;23.318;2024-02-15T04:03:05;95018.34;;;4.43;71.18
59009;BME280;44794;42.652;23.318;2024-02-15T04:05:31;95028.03;;;4.75;70.14
59009;BME280;44794;42.652;23.318;2024-02-15T04:07:56;95035.69;;;4.76;70.08
59009;BME280;44794;42.652;23.318;2024-02-15T04:10:21;95031.38;;;4.77;69.78
59009;BME280;44794;42.652;23.318;2024-02-15T04:12:46;95029.91;;;4.71;69.57
59009;BME280;44794;42.652;23.318;2024-02-15T04:15:12;95029.22;;;5.05;69.29
59009;BME280;44794;42.652;23.318;2024-02-15T04:17:38;95033.38;;;5.25;67.59
59009;BME280;44794;42.652;23.318;2024-02-15T04:20:03;95039.44;;;4.88;68.32
59009;BME280;44794;42.652;23.318;2024-02-15T04:22:31;95037.28;;;4.79;69.35
59009;BME280;44794;42.652;23.318;2024-02-15T04:25:01;95032.66;;;4.87;68.79
59009;BME280;44794;42.652;23.318;2024-02-15T04:27:26;95039.19;;;4.94;68.85
59009;BME280;44794;42.652;23.318;2024-02-15T04:29:52;95033.47;;;4.87;67.75
59009;BME280;44794;42.652;23.318;2024-02-15T04:32:17;95035.25;;;4.67;69.68
59009;BME280;44794;42.652;23.318;2024-02-15T04:34:44;95037.00;;;4.85;69.68
59009;BME280;44794;42.652;23.318;2024-02-15T04:37:11;95035.72;;;4.38;71.00
59009;BME280;44794;42.652;23.318;2024-02-15T04:39:37;95034.75;;;4.41;72.32
59009;BME280;44794;42.652;23.318;2024-02-15T04:42:03;95036.41;;;4.42;71.84
59009;BME280;44794;42.652;23.318;2024-02-15T04:44:31;95036.72;;;4.34;72.40
59009;BME280;44794;42.652;23.318;2024-02-15T04:47:00;95035.44;;;4.44;72.55
59009;BME280;44794;42.652;23.318;2024-02-15T04:49:25;95042.44;;;4.41;71.56
59009;BME280;44794;42.652;23.318;2024-02-15T04:51:51;95047.53;;;4.42;72.01
59009;BME280;44794;42.652;23.318;2024-02-15T04:54:16;95054.41;;;4.60;71.27
59009;BME280;44794;42.652;23.318;2024-02-15T04:56:43;95048.56;;;4.38;71.36
59009;BME280;44794;42.652;23.318;2024-02-15T04:59:11;95057.91;;;4.39;71.98
59009;BME280;44794;42.652;23.318;2024-02-15T05:01:40;95062.63;;;4.30;72.74
59009;BME280;44794;42.652;23.318;2024-02-15T05:04:07;95064.38;;;4.29;72.59
59009;BME280;44794;42.652;23.318;2024-02-15T05:06:33;95068.28;;;4.38;73.40
59009;BME280;44794;42.652;23.318;2024-02-15T05:09:00;95069.38;;;4.32;72.28
59009;BME280;44794;42.652;23.318;2024-02-15T05:11:25;95069.50;;;4.49;72.64
59009;BME280;44794;42.652;23.318;2024-02-15T05:13:50;95069.78;;;4.23;72.78
59009;BME280;44794;42.652;23.318;2024-02-15T05:16:16;95076.53;;;4.06;73.30
59009;BME280;44794;42.652;23.318;2024-02-15T05:18:41;95071.88;;;3.94;74.92
59009;BME280;44794;42.652;23.318;2024-02-15T05:21:07;95054.09;;;3.89;75.59
59009;BME280;44794;42.652;23.318;2024-02-15T05:23:35;95069.06;;;4.00;75.16
59009;BME280;44794;42.652;23.318;2024-02-15T05:26:01;95069.13;;;4.38;74.72
59009;BME280;44794;42.652;23.318;2024-02-15T05:28:26;95072.44;;;4.40;72.77
59009;BME280;44794;42.652;23.318;2024-02-15T05:33:37;95084.69;;;4.35;73.13
59009;BME280;44794;42.652;23.318;2024-02-15T05:36:05;95083.16;;;4.49;71.77
59009;BME280;44794;42.652;23.318;2024-02-15T05:38:30;95095.28;;;4.47;71.79
59009;BME280;44794;42.652;23.318;2024-02-15T05:40:56;95091.09;;;4.45;72.07
59009;BME280;44794;42.652;23.318;2024-02-15T05:43:21;95094.94;;;4.55;71.77
59009;BME280;44794;42.652;23.318;2024-02-15T05:45:47;95097.16;;;4.82;70.71
59009;BME280;44794;42.652;23.318;2024-02-15T05:48:14;95101.19;;;4.69;70.42
59009;BME280;44794;42.652;23.318;2024-02-15T05:50:39;95105.75;;;4.63;69.11
59009;BME280;44794;42.652;23.318;2024-02-15T05:53:04;95101.88;;;4.73;69.87
59009;BME280;44794;42.652;23.318;2024-02-15T05:55:29;95108.44;;;4.80;69.76
59009;BME280;44794;42.652;23.318;2024-02-15T05:57:58;95108.44;;;4.60;70.58
59009;BME280;44794;42.652;23.318;2024-02-15T06:00:24;95107.94;;;4.52;70.02
59009;BME280;44794;42.652;23.318;2024-02-15T06:02:49;95105.38;;;4.52;70.86
59009;BME280;44794;42.652;23.318;2024-02-15T06:05:14;95105.31;;;4.53;70.60
59009;BME280;44794;42.652;23.318;2024-02-15T06:07:42;95076.59;;;4.24;71.88
59009;BME280;44794;42.652;23.318;2024-02-15T06:10:07;95107.56;;;4.21;72.96
59009;BME280;44794;42.652;23.318;2024-02-15T06:12:32;95108.63;;;4.16;73.04
59009;BME280;44794;42.652;23.318;2024-02-15T06:14:58;95111.69;;;4.45;72.74
59009;BME280;44794;42.652;23.318;2024-02-15T06:17:23;95122.53;;;4.51;72.04
59009;BME280;44794;42.652;23.318;2024-02-15T06:19:49;95127.34;;;4.59;71.04
59009;BME280;44794;42.652;23.318;2024-02-15T06:22:14;95127.03;;;4.66;71.07
59009;BME280;44794;42.652;23.318;2024-02-15T06:24:40;95129.19;;;4.36;71.11
59009;BME280;44794;42.652;23.318;2024-02-15T06:27:06;95133.16;;;4.44;71.74
59009;BME280;44794;42.652;23.318;2024-02-15T06:29:31;95127.75;;;4.30;72.08
59009;BME280;44794;42.652;23.318;2024-02-15T06:32:15;95143.41;;;4.64;71.03
59009;BME280;44794;42.652;23.318;2024-02-15T06:34:59;95143.06;;;4.91;69.41
59009;BME280;44794;42.652;23.318;2024-02-15T06:37:43;95150.97;;;5.07;68.38
59009;BME280;44794;42.652;23.318;2024-02-15T06:40:27;95159.81;;;5.19;66.93
59009;BME280;44794;42.652;23.318;2024-02-15T06:42:53;95155.66;;;5.35;66.51
59009;BME280;44794;42.652;23.318;2024-02-15T06:45:19;95155.75;;;5.14;66.54
59009;BME280;44794;42.652;23.318;2024-02-15T06:47:44;95156.16;;;5.05;66.99
59009;BME280;44794;42.652;23.318;2024-02-15T06:50:13;95161.38;;;5.04;66.93
59009;BME280;44794;42.652;23.318;2024-02-15T06:52:39;95155.75;;;4.76;68.84
59009;BME280;44794;42.652;23.318;2024-02-15T06:55:06;95157.00;;;5.06;68.02
59009;BME280;44794;42.652;23.318;2024-02-15T06:57:33;95165.31;;;4.92;67.95
59009;BME280;44794;42.652;23.318;2024-02-15T06:59:58;95166.56;;;4.84;68.14
59009;BME280;44794;42.652;23.318;2024-02-15T07:02:24;95154.75;;;4.80;69.72
59009;BME280;44794;42.652;23.318;2024-02-15T07:04:49;95148.78;;;4.98;68.80
59009;BME280;44794;42.652;23.318;2024-02-15T07:07:16;95158.47;;;4.73;68.66
59009;BME280;44794;42.652;23.318;2024-02-15T07:09:42;95139.69;;;4.51;69.41
59009;BME280;44794;42.652;23.318;2024-02-15T07:12:07;95144.84;;;4.31;71.30
59009;BME280;44794;42.652;23.318;2024-02-15T07:14:32;95136.59;;;4.43;71.14
59009;BME280;44794;42.652;23.318;2024-02-15T07:16:57;95140.06;;;4.62;70.95
59009;BME280;44794;42.652;23.318;2024-02-15T07:19:24;95130.94;;;4.55;69.95
59009;BME280;44794;42.652;23.318;2024-02-15T07:21:52;95136.72;;;4.98;70.36
59009;BME280;44794;42.652;23.318;2024-02-15T07:24:17;95142.97;;;4.74;67.97
59009;BME280;44794;42.652;23.318;2024-02-15T07:26:42;95141.66;;;4.64;68.30
59009;BME280;44794;42.652;23.318;2024-02-15T07:29:07;95149.97;;;4.71;68.18
59009;BME280;44794;42.652;23.318;2024-02-15T07:31:33;95141.56;;;5.06;67.09
59009;BME280;44794;42.652;23.318;2024-02-15T07:33:58;95144.03;;;4.89;65.67
59009;BME280;44794;42.652;23.318;2024-02-15T07:36:24;95141.19;;;4.95;66.00
59009;BME280;44794;42.652;23.318;2024-02-15T07:38:49;95136.38;;;4.87;66.98
59009;BME280;44794;42.652;23.318;2024-02-15T07:41:16;95140.38;;;5.13;64.93
59009;BME280;44794;42.652;23.318;2024-02-15T07:43:43;95144.84;;;5.27;64.84
59009;BME280;44794;42.652;23.318;2024-02-15T07:46:11;95150.91;;;5.45;63.63
59009;BME280;44794;42.652;23.318;2024-02-15T07:48:36;95142.56;;;5.21;64.04
59009;BME280;44794;42.652;23.318;2024-02-15T07:51:03;95140.91;;;5.39;63.75
59009;BME280;44794;42.652;23.318;2024-02-15T07:53:31;95153.63;;;5.42;62.69
59009;BME280;44794;42.652;23.318;2024-02-15T07:55:56;95149.31;;;5.42;63.00
59009;BME280;44794;42.652;23.318;2024-02-15T07:58:23;95149.81;;;5.50;63.12
59009;BME280;44794;42.652;23.318;2024-02-15T08:00:48;95151.91;;;5.42;62.81
59009;BME280;44794;42.652;23.318;2024-02-15T08:03:13;95148.81;;;5.71;62.74
59009;BME280;44794;42.652;23.318;2024-02-15T08:05:39;95144.50;;;5.35;62.12
59009;BME280;44794;42.652;23.318;2024-02-15T08:08:05;95144.78;;;5.29;63.19
59009;BME280;44794;42.652;23.318;2024-02-15T08:10:31;95145.19;;;5.38;63.82
59009;BME280;44794;42.652;23.318;2024-02-15T08:12:56;95153.22;;;5.51;63.02
59009;BME280;44794;42.652;23.318;2024-02-15T08:15:23;95132.41;;;5.55;62.39
59009;BME280;44794;42.652;23.318;2024-02-15T08:17:49;95139.97;;;5.58;62.16
59009;BME280;44794;42.652;23.318;2024-02-15T08:20:14;95140.94;;;5.56;62.46
59009;BME280;44794;42.652;23.318;2024-02-15T08:22:42;95138.09;;;5.80;61.61
59009;BME280;44794;42.652;23.318;2024-02-15T08:25:09;95144.28;;;5.95;61.88
59009;BME280;44794;42.652;23.318;2024-02-15T08:27:36;95141.22;;;6.22;61.12
59009;BME280;44794;42.652;23.318;2024-02-15T08:30:06;95147.44;;;6.35;60.08
59009;BME280;44794;42.652;23.318;2024-02-15T08:32:33;95137.28;;;6.32;59.95
59009;BME280;44794;42.652;23.318;2024-02-15T08:34:58;95138.19;;;6.65;58.99
59009;BME280;44794;42.652;23.318;2024-02-15T08:37:24;95153.72;;;6.80;57.86
59009;BME280;44794;42.652;23.318;2024-02-15T08:39:49;95154.06;;;6.57;57.76
59009;BME280;44794;42.652;23.318;2024-02-15T08:42:14;95151.53;;;6.56;57.61
59009;BME280;44794;42.652;23.318;2024-02-15T08:44:39;95156.25;;;6.81;57.07
59009;BME280;44794;42.652;23.318;2024-02-15T08:47:05;95139.22;;;6.77;57.32
59009;BME280;44794;42.652;23.318;2024-02-15T08:49:30;95137.00;;;6.55;58.05
59009;BME280;44794;42.652;23.318;2024-02-15T08:51:56;95140.09;;;6.78;58.66
59009;BME280;44794;42.652;23.318;2024-02-15T08:54:23;95135.78;;;6.62;59.64
59009;BME280;44794;42.652;23.318;2024-02-15T08:56:50;95133.78;;;6.67;59.24
59009;BME280;44794;42.652;23.318;2024-02-15T08:59:17;95134.38;;;6.71;59.29
59009;BME280;44794;42.652;23.318;2024-02-15T09:01:42;95136.81;;;6.74;58.25
59009;BME280;44794;42.652;23.318;2024-02-15T09:04:08;95136.41;;;6.99;58.39
59009;BME280;44794;42.652;23.318;2024-02-15T09:06:33;95137.13;;;7.18;57.96
59009;BME280;44794;42.652;23.318;2024-02-15T09:08:59;95138.09;;;7.00;57.47
59009;BME280;44794;42.652;23.318;2024-02-15T09:11:28;95132.53;;;6.90;57.63
59009;BME280;44794;42.652;23.318;2024-02-15T09:13:53;95130.00;;;7.06;57.70
59009;BME280;44794;42.652;23.318;2024-02-15T09:16:20;95128.81;;;7.28;56.42
59009;BME280;44794;42.652;23.318;2024-02-15T09:18:46;95123.97;;;7.22;56.82
59009;BME280;44794;42.652;23.318;2024-02-15T09:21:12;95116.47;;;7.18;57.37
59009;BME280;44794;42.652;23.318;2024-02-15T09:23:37;95107.63;;;7.22;58.19
59009;BME280;44794;42.652;23.318;2024-02-15T09:26:04;95125.59;;;7.08;56.74
59009;BME280;44794;42.652;23.318;2024-02-15T09:28:29;95129.34;;;7.02;56.81
59009;BME280;44794;42.652;23.318;2024-02-15T09:30:56;95126.56;;;7.05;57.83
59009;BME280;44794;42.652;23.318;2024-02-15T09:33:26;95124.13;;;7.19;58.24
59009;BME280;44794;42.652;23.318;2024-02-15T09:35:51;95128.19;;;7.55;56.62
59009;BME280;44794;42.652;23.318;2024-02-15T09:38:16;95127.75;;;7.63;55.23
59009;BME280;44794;42.652;23.318;2024-02-15T09:40:43;95132.59;;;7.69;55.63
59009;BME280;44794;42.652;23.318;2024-02-15T09:43:09;95125.66;;;7.54;54.73
59009;BME280;44794;42.652;23.318;2024-02-15T09:45:35;95122.16;;;7.24;56.02
59009;BME280;44794;42.652;23.318;2024-02-15T09:48:02;95119.91;;;7.49;56.22
59009;BME280;44794;42.652;23.318;2024-02-15T09:50:30;95116.56;;;7.47;56.12
59009;BME280;44794;42.652;23.318;2024-02-15T09:52:58;95118.91;;;7.36;56.75
59009;BME280;44794;42.652;23.318;2024-02-15T09:55:24;95117.94;;;7.69;56.68
59009;BME280;44794;42.652;23.318;2024-02-15T09:57:50;95118.66;;;7.56;55.36
59009;BME280;44794;42.652;23.318;2024-02-15T10:00:15;95114.16;;;7.44;55.42
59009;BME280;44794;42.652;23.318;2024-02-15T10:02:46;95113.16;;;7.62;55.66
59009;BME280;44794;42.652;23.318;2024-02-15T10:05:12;95112.81;;;7.99;54.61
59009;BME280;44794;42.652;23.318;2024-02-15T10:07:40;95110.47;;;7.94;54.57
59009;BME280;44794;42.652;23.318;2024-02-15T10:12:41;95111.66;;;8.20;54.35
59009;BME280;44794;42.652;23.318;2024-02-15T10:15:08;95106.91;;;8.71;53.12
59009;BME280;44794;42.652;23.318;2024-02-15T10:17:34;95104.41;;;8.40;52.56
59009;BME280;44794;42.652;23.318;2024-02-15T10:20:04;95092.78;;;8.18;53.13
59009;BME280;44794;42.652;23.318;2024-02-15T10:22:30;95096.38;;;8.00;53.58
59009;BME280;44794;42.652;23.318;2024-02-15T10:25:12;95092.06;;;8.29;53.17
59009;BME280;44794;42.652;23.318;2024-02-15T10:27:38;95082.25;;;8.50;53.14
59009;BME280;44794;42.652;23.318;2024-02-15T10:30:16;95092.94;;;8.73;52.26
59009;BME280;44794;42.652;23.318;2024-02-15T10:32:42;95090.16;;;8.62;51.58
59009;BME280;44794;42.652;23.318;2024-02-15T10:35:08;95087.41;;;8.36;52.57
59009;BME280;44794;42.652;23.318;2024-02-15T10:37:33;95075.59;;;8.46;52.81
59009;BME280;44794;42.652;23.318;2024-02-15T10:40:05;95073.31;;;8.55;52.29
59009;BME280;44794;42.652;23.318;2024-02-15T10:42:34;95073.13;;;8.58;52.60
59009;BME280;44794;42.652;23.318;2024-02-15T10:45:01;95067.78;;;8.61;52.01
59009;BME280;44794;42.652;23.318;2024-02-15T10:47:30;95063.91;;;8.68;52.80
59009;BME280;44794;42.652;23.318;2024-02-15T10:49:55;95073.13;;;8.72;52.26
59009;BME280;44794;42.652;23.318;2024-02-15T10:52:20;95070.66;;;8.98;52.23
59009;BME280;44794;42.652;23.318;2024-02-15T10:55:21;95072.50;;;8.96;51.83
59009;BME280;44794;42.652;23.318;2024-02-15T10:57:40;95073.72;;;8.91;51.60
59009;BME280;44794;42.652;23.318;2024-02-15T11:00:10;95071.16;;;8.91;51.81
59009;BME280;44794;42.652;23.318;2024-02-15T11:02:38;95059.84;;;8.92;52.13
59009;BME280;44794;42.652;23.318;2024-02-15T11:05:07;95061.97;;;8.99;51.37
59009;BME280;44794;42.652;23.318;2024-02-15T11:07:36;95055.41;;;8.94;51.85
59009;BME280;44794;42.652;23.318;2024-02-15T11:10:03;95054.66;;;8.92;52.46
59009;BME280;44794;42.652;23.318;2024-02-15T11:12:33;95054.09;;;9.15;51.90
59009;BME280;44794;42.652;23.318;2024-02-15T11:15:00;95056.81;;;8.99;51.88
59009;BME280;44794;42.652;23.318;2024-02-15T11:20:08;95052.44;;;9.00;51.43
59009;BME280;44794;42.652;23.318;2024-02-15T11:22:35;95045.78;;;9.24;51.38
59009;BME280;44794;42.652;23.318;2024-02-15T11:25:07;95051.63;;;8.99;51.29
59009;BME280;44794;42.652;23.318;2024-02-15T11:27:35;95057.16;;;9.07;51.11
59009;BME280;44794;42.652;23.318;2024-02-15T11:30:02;95040.22;;;8.74;51.51
59009;BME280;44794;42.652;23.318;2024-02-15T11:32:58;95052.25;;;8.89;51.68
59009;BME280;44794;42.652;23.318;2024-02-15T11:35:25;95037.53;;;9.03;51.50
59009;BME280;44794;42.652;23.318;2024-02-15T11:40:16;95047.22;;;9.42;50.58
59009;BME280;44794;42.652;23.318;2024-02-15T11:42:44;95053.00;;;9.33;50.30
59009;BME280;44794;42.652;23.318;2024-02-15T11:45:11;95052.69;;;9.37;49.92
59009;BME280;44794;42.652;23.318;2024-02-15T11:47:37;95047.03;;;9.45;50.01
59009;BME280;44794;42.652;23.318;2024-02-15T11:50:13;95044.56;;;9.43;50.02
59009;BME280;44794;42.652;23.318;2024-02-15T11:52:43;95049.03;;;9.68;49.34
59009;BME280;44794;42.652;23.318;2024-02-15T11:55:08;95050.94;;;9.78;49.28
59009;BME280;44794;42.652;23.318;2024-02-15T11:57:38;95045.13;;;9.74;48.79
59009;BME280;44794;42.652;23.318;2024-02-15T12:00:21;95044.44;;;10.11;49.50
59009;BME280;44794;42.652;23.318;2024-02-15T12:03:05;95044.13;;;10.67;47.38
59009;BME280;44794;42.652;23.318;2024-02-15T12:05:49;95048.66;;;10.39;47.20
59009;BME280;44794;42.652;23.318;2024-02-15T12:08:34;95033.63;;;10.31;48.06
59009;BME280;44794;42.652;23.318;2024-02-15T12:11:38;95026.78;;;10.55;47.92
59009;BME280;44794;42.652;23.318;2024-02-15T12:14:22;95029.38;;;11.05;47.12
59009;BME280;44794;42.652;23.318;2024-02-15T12:17:10;95037.59;;;10.99;46.05
59009;BME280;44794;42.652;23.318;2024-02-15T12:19:54;95035.00;;;10.99;46.33
59009;BME280;44794;42.652;23.318;2024-02-15T12:22:25;95028.44;;;10.81;46.51
59009;BME280;44794;42.652;23.318;2024-02-15T12:24:55;95031.66;;;10.59;46.92
59009;BME280;44794;42.652;23.318;2024-02-15T12:27:21;95036.44;;;10.53;47.01
59009;BME280;44794;42.652;23.318;2024-02-15T12:29:53;95022.41;;;10.43;47.33
59009;BME280;44794;42.652;23.318;2024-02-15T12:32:22;95023.16;;;10.70;46.78
59009;BME280;44794;42.652;23.318;2024-02-15T12:34:47;95019.94;;;10.66;46.49
59009;BME280;44794;42.652;23.318;2024-02-15T12:37:12;95022.44;;;10.55;46.92
59009;BME280;44794;42.652;23.318;2024-02-15T12:39:38;95025.63;;;11.09;46.29
59009;BME280;44794;42.652;23.318;2024-02-15T12:42:03;95021.28;;;10.72;46.92
59009;BME280;44794;42.652;23.318;2024-02-15T12:44:32;95014.09;;;11.00;46.85
59009;BME280;44794;42.652;23.318;2024-02-15T12:46:58;95013.34;;;11.35;46.69
59009;BME280;44794;42.652;23.318;2024-02-15T12:51:53;95017.63;;;11.12;45.98
59009;BME280;44794;42.652;23.318;2024-02-15T12:54:20;95012.56;;;10.85;46.23
59009;BME280;44794;42.652;23.318;2024-02-15T12:56:49;95012.22;;;10.40;47.23
59009;BME280;44794;42.652;23.318;2024-02-15T12:59:14;95006.13;;;10.66;47.04
59009;BME280;44794;42.652;23.318;2024-02-15T13:01:40;94997.59;;;10.64;47.29
59009;BME280;44794;42.652;23.318;2024-02-15T13:04:05;94998.22;;;10.55;47.57
59009;BME280;44794;42.652;23.318;2024-02-15T13:06:33;94997.50;;;10.65;47.38
59009;BME280;44794;42.652;23.318;2024-02-15T13:09:01;94996.72;;;11.13;47.02
59009;BME280;44794;42.652;23.318;2024-02-15T13:11:28;95007.28;;;11.35;46.67
59009;BME280;44794;42.652;23.318;2024-02-15T13:13:53;95009.31;;;11.67;45.80
59009;BME280;44794;42.652;23.318;2024-02-15T13:16:20;95010.13;;;11.32;45.91